Windsor, Canada
Current Conditions -  °F | °C
As of 11:14 PM on Thursday 18 Dec 2014 (Local Time) from CYQG Reporting Station
Light Snow Light Snow  
Wind Chill: 23°   Ceiling: 1800
Heat Index: 30°   Visibility: 8mi
Dew Point: 27°   Wind: 8mph
Humidity: 86%   Direction: 10°N
Pressure: 30.18"   Gusts: NA
Location:  42.26°N, 82.96°W
Report Text: CYQG 190414Z 01007KT 8SM -SN FEW009 OVC018 M01/M03 A3018 RMK SF2SC6 SLP228
Loading
Personal Weather Stations






























Interactive Weather Map New forecast layout! Learn more

10-Day Weather Forecast

Advertisements
Track Severe Weather on mobile